Hobbema, Canada
Current Conditions -  °F | °C
As of 6:00 PM on Wednesday 22 Oct 2014 (Local Time) from CYEG Reporting Station
Broken Clouds Broken Clouds  
Wind Chill: 55°   Ceiling: 23000
Heat Index: 55°   Visibility: 15mi
Dew Point: 30°   Wind: 10mph
Humidity: 38%   Direction: 160°SSE
Pressure: 29.58"   Gusts: NA
Location:  52.83°N, 113.45°W
Report Text: CYEG 230000Z 16009KT 15SM FEW160 BKN230 13/M01 A2958 RMK AC1CI7 AC TR SLP034 DENSITY ALT 3000FT
Loading
Personal Weather Stations






























Interactive Weather Map New forecast layout! Learn more

10-Day Weather Forecast

Advertisements
Track Severe Weather on mobile